createdAt,value
2023-07-16T00:00:00.313Z,1001.63
2023-07-16T00:01:00.363Z,1001.65
2023-07-16T00:02:00.375Z,1001.68
2023-07-16T00:03:00.339Z,1001.76
2023-07-16T00:04:00.346Z,1001.83
2023-07-16T00:05:00.268Z,1001.82
2023-07-16T00:06:00.278Z,1001.85
2023-07-16T00:07:00.306Z,1001.80
2023-07-16T00:08:00.235Z,1001.82
2023-07-16T00:09:00.235Z,1001.78
2023-07-16T00:10:00.222Z,1001.79
2023-07-16T00:11:00.192Z,1001.77
2023-07-16T00:12:00.189Z,1001.74
2023-07-16T00:13:00.182Z,1001.72
2023-07-16T00:14:00.949Z,1001.70
2023-07-16T00:15:00.170Z,1001.73
2023-07-16T00:16:00.246Z,1001.72
2023-07-16T00:17:00.322Z,1001.83
2023-07-16T00:18:00.173Z,1001.77
2023-07-16T00:19:00.159Z,1001.79
2023-07-16T00:20:00.163Z,1001.72
2023-07-16T00:21:00.077Z,1001.72
2023-07-16T00:22:00.696Z,1001.74
2023-07-16T00:23:00.120Z,1001.67
2023-07-16T00:24:00.144Z,1001.72
2023-07-16T00:25:00.027Z,1001.75
2023-07-16T00:26:00.033Z,1001.80
2023-07-16T00:27:00.026Z,1001.82
2023-07-16T00:28:00.302Z,1001.80
2023-07-16T00:29:00.418Z,1001.84
2023-07-16T00:30:00.585Z,1001.83
2023-07-16T00:31:00.033Z,1001.82
2023-07-16T00:32:00.699Z,1001.82
2023-07-16T00:32:59.970Z,1001.88
2023-07-16T00:33:59.947Z,1001.91
2023-07-16T00:34:59.952Z,1001.94
2023-07-16T00:35:59.923Z,1001.94
2023-07-16T00:36:59.960Z,1001.93
2023-07-16T00:37:59.902Z,1001.96
2023-07-16T00:38:59.888Z,1001.98
2023-07-16T00:39:59.908Z,1002.02
2023-07-16T00:40:59.873Z,1002.04
2023-07-16T00:41:59.863Z,1002.06
2023-07-16T00:42:59.843Z,1002.09
2023-07-16T00:43:59.833Z,1002.16
2023-07-16T00:44:59.879Z,1002.19
2023-07-16T00:45:59.888Z,1002.27
2023-07-16T00:46:59.927Z,1002.32
2023-07-16T00:47:59.817Z,1002.33
2023-07-16T00:48:59.790Z,1002.42
2023-07-16T00:49:59.763Z,1002.51
2023-07-16T00:50:59.751Z,1002.60
2023-07-16T00:51:59.757Z,1002.66
2023-07-16T00:52:59.753Z,1002.72
2023-07-16T00:53:59.736Z,1002.84
2023-07-16T00:54:59.718Z,1002.88
2023-07-16T00:55:59.721Z,1002.94
2023-07-16T00:56:59.727Z,1002.95
2023-07-16T00:57:59.702Z,1002.95
2023-07-16T00:58:59.667Z,1002.96
2023-07-16T00:59:59.683Z,1002.97
2023-07-16T01:00:59.637Z,1003.02
2023-07-16T01:01:59.724Z,1003.09
2023-07-16T01:02:59.761Z,1003.10
2023-07-16T01:03:59.629Z,1003.22
2023-07-16T01:05:00.709Z,1003.27
2023-07-16T01:05:59.594Z,1003.41
2023-07-16T01:06:59.640Z,1003.44
2023-07-16T01:07:59.587Z,1003.58
2023-07-16T01:08:59.572Z,1003.67
2023-07-16T01:09:59.625Z,1003.65
2023-07-16T01:10:59.537Z,1003.75
2023-07-16T01:11:59.554Z,1003.77
2023-07-16T01:12:59.540Z,1003.86
2023-07-16T01:13:59.527Z,1004.03
2023-07-16T01:15:00.093Z,1004.08
2023-07-16T01:15:59.514Z,1004.15
2023-07-16T01:16:59.561Z,1004.22
2023-07-16T01:17:59.535Z,1004.32
2023-07-16T01:18:59.456Z,1004.44
2023-07-16T01:19:59.544Z,1004.49
2023-07-16T01:20:59.435Z,1004.56
2023-07-16T01:21:59.429Z,1004.58
2023-07-16T01:22:59.502Z,1004.64
2023-07-16T01:23:59.407Z,1004.61
2023-07-16T01:24:59.416Z,1004.70
2023-07-16T01:26:00.215Z,1004.65
2023-07-16T01:26:59.365Z,1004.72
2023-07-16T01:27:59.391Z,1004.75
2023-07-16T01:28:59.360Z,1004.81
2023-07-16T01:29:59.399Z,1004.79
2023-07-16T01:30:59.338Z,1004.81
2023-07-16T01:31:59.350Z,1004.76
2023-07-16T01:32:59.665Z,1004.75
2023-07-16T01:33:59.361Z,1004.77
2023-07-16T01:34:59.295Z,1004.77
2023-07-16T01:35:59.303Z,1004.78
2023-07-16T01:36:59.265Z,1004.82
2023-07-16T01:37:59.294Z,1004.88
2023-07-16T01:38:59.271Z,1004.78
2023-07-16T01:39:59.245Z,1004.68
2023-07-16T01:40:59.232Z,1004.69
2023-07-16T01:41:59.237Z,1004.68
2023-07-16T01:42:59.251Z,1004.65
2023-07-16T01:43:59.192Z,1004.61
2023-07-16T01:44:59.222Z,1004.68
2023-07-16T01:45:59.223Z,1004.62
2023-07-16T01:46:59.176Z,1004.64
2023-07-16T01:47:59.184Z,1004.55
2023-07-16T01:48:59.142Z,1004.54
2023-07-16T01:49:59.147Z,1004.55
2023-07-16T01:50:59.113Z,1004.58
2023-07-16T01:51:59.120Z,1004.58
2023-07-16T01:52:59.096Z,1004.68
2023-07-16T01:53:59.087Z,1004.68
2023-07-16T01:54:59.226Z,1004.76
2023-07-16T01:55:59.076Z,1004.78
2023-07-16T01:56:59.054Z,1004.77
2023-07-16T01:57:59.724Z,1004.80
2023-07-16T01:58:59.049Z,1004.86
2023-07-16T01:59:59.023Z,1004.89
2023-07-16T02:00:59.192Z,1004.83
2023-07-16T02:01:59.015Z,1004.80
2023-07-16T02:02:59.090Z,1004.82
2023-07-16T02:03:58.986Z,1004.76
2023-07-16T02:04:58.994Z,1004.74
2023-07-16T02:05:59.013Z,1004.74
2023-07-16T02:06:58.942Z,1004.76
2023-07-16T02:07:58.939Z,1004.71
2023-07-16T02:08:58.929Z,1004.63
2023-07-16T02:09:58.914Z,1004.58
2023-07-16T02:10:59.628Z,1004.54
2023-07-16T02:11:58.911Z,1004.49
2023-07-16T02:12:58.875Z,1004.42
2023-07-16T02:13:58.874Z,1004.40
2023-07-16T02:14:58.893Z,1004.44
2023-07-16T02:15:58.920Z,1004.43
2023-07-16T02:16:58.850Z,1004.52
2023-07-16T02:17:58.891Z,1004.51
2023-07-16T02:18:58.831Z,1004.57
2023-07-16T02:19:58.820Z,1004.63
2023-07-16T02:20:58.849Z,1004.62
2023-07-16T02:21:58.778Z,1004.53
2023-07-16T02:22:58.826Z,1004.49
2023-07-16T02:23:59.003Z,1004.64
2023-07-16T02:24:58.752Z,1004.57
2023-07-16T02:25:58.910Z,1004.58
2023-07-16T02:26:59.258Z,1004.71
2023-07-16T02:27:58.727Z,1004.71
2023-07-16T02:28:58.755Z,1004.85
2023-07-16T02:29:58.749Z,1004.87
2023-07-16T02:30:58.750Z,1004.77
2023-07-16T02:31:58.676Z,1004.70
2023-07-16T02:32:58.709Z,1004.70
2023-07-16T02:33:58.667Z,1004.65
2023-07-16T02:34:58.651Z,1004.56
2023-07-16T02:35:58.635Z,1004.52
2023-07-16T02:36:58.623Z,1004.52
2023-07-16T02:37:58.650Z,1004.48
2023-07-16T02:38:59.505Z,1004.45
2023-07-16T02:39:58.628Z,1004.48
2023-07-16T02:40:58.607Z,1004.48
2023-07-16T02:41:58.568Z,1004.49
2023-07-16T02:42:59.253Z,1004.54
2023-07-16T02:43:58.561Z,1004.60
2023-07-16T02:44:58.534Z,1004.64
2023-07-16T02:45:58.555Z,1004.64
2023-07-16T02:46:58.557Z,1004.62
2023-07-16T02:47:58.516Z,1004.68
2023-07-16T02:48:58.492Z,1004.75
2023-07-16T02:49:58.482Z,1004.78
2023-07-16T02:50:58.495Z,1004.79
2023-07-16T02:51:58.453Z,1004.74
2023-07-16T02:52:58.446Z,1004.72
2023-07-16T02:53:58.455Z,1004.69
2023-07-16T02:54:58.454Z,1004.67
2023-07-16T02:55:59.140Z,1004.71
2023-07-16T02:56:58.427Z,1004.71
2023-07-16T02:57:58.391Z,1004.71
2023-07-16T02:58:58.396Z,1004.72
2023-07-16T02:59:58.396Z,1004.74
2023-07-16T03:00:58.448Z,1004.73
2023-07-16T03:01:58.469Z,1004.79
2023-07-16T03:02:58.426Z,1004.84
2023-07-16T03:03:58.323Z,1004.90
2023-07-16T03:04:58.376Z,1004.90
2023-07-16T03:05:58.313Z,1004.86
2023-07-16T03:06:58.304Z,1004.83
2023-07-16T03:07:58.286Z,1004.77
2023-07-16T03:08:58.293Z,1004.73
2023-07-16T03:09:58.254Z,1004.71
2023-07-16T03:10:58.328Z,1004.61
2023-07-16T03:11:58.276Z,1004.55
2023-07-16T03:12:58.244Z,1004.51
2023-07-16T03:13:58.246Z,1004.48
2023-07-16T03:14:58.232Z,1004.49
2023-07-16T03:15:58.214Z,1004.48
2023-07-16T03:16:58.256Z,1004.47
2023-07-16T03:17:58.254Z,1004.41
2023-07-16T03:18:58.767Z,1004.43
2023-07-16T03:19:58.180Z,1004.47
2023-07-16T03:20:58.152Z,1004.47
2023-07-16T03:21:58.153Z,1004.49
2023-07-16T03:22:58.161Z,1004.51
2023-07-16T03:23:58.152Z,1004.40
2023-07-16T03:24:58.219Z,1004.35
2023-07-16T03:25:58.114Z,1004.33
2023-07-16T03:27:08.181Z,1004.26
2023-07-16T03:27:58.105Z,1004.27
2023-07-16T03:28:58.070Z,1004.31
2023-07-16T03:29:58.059Z,1004.42
2023-07-16T03:30:58.090Z,1004.49
2023-07-16T03:31:58.040Z,1004.53
2023-07-16T03:32:58.084Z,1004.56
2023-07-16T03:33:58.008Z,1004.59
2023-07-16T03:34:58.017Z,1004.65
2023-07-16T03:35:57.991Z,1004.71
2023-07-16T03:36:57.978Z,1004.71
2023-07-16T03:37:57.970Z,1004.65
2023-07-16T03:38:58.053Z,1004.57
2023-07-16T03:39:58.011Z,1004.41
2023-07-16T03:40:57.956Z,1004.24
2023-07-16T03:41:58.011Z,1004.07
2023-07-16T03:42:57.920Z,1004.03
2023-07-16T03:43:57.897Z,1004.35
2023-07-16T03:44:57.895Z,1004.49
2023-07-16T03:45:57.883Z,1004.44
2023-07-16T03:46:57.947Z,1004.39
2023-07-16T03:47:57.945Z,1004.41
2023-07-16T03:48:57.868Z,1004.49
2023-07-16T03:49:57.871Z,1004.52
2023-07-16T03:50:57.836Z,1004.54
2023-07-16T03:51:57.908Z,1004.51
2023-07-16T03:52:57.816Z,1004.47
2023-07-16T03:53:57.818Z,1004.41
2023-07-16T03:54:57.781Z,1004.41
2023-07-16T03:55:57.782Z,1004.46
2023-07-16T03:56:57.754Z,1004.48
2023-07-16T03:57:57.766Z,1004.54
2023-07-16T03:58:58.639Z,1004.57
2023-07-16T03:59:57.741Z,1004.59
2023-07-16T04:00:57.719Z,1004.58
2023-07-16T04:01:57.729Z,1004.59
2023-07-16T04:02:57.810Z,1004.62
2023-07-16T04:03:57.731Z,1004.57
2023-07-16T04:04:57.683Z,1004.58
2023-07-16T04:05:57.673Z,1004.62
2023-07-16T04:06:57.650Z,1004.61
2023-07-16T04:07:57.651Z,1004.64
2023-07-16T04:08:57.682Z,1004.68
2023-07-16T04:09:57.633Z,1004.63
2023-07-16T04:10:57.665Z,1004.62
2023-07-16T04:11:57.611Z,1004.65
2023-07-16T04:12:57.606Z,1004.59
2023-07-16T04:13:58.279Z,1004.50
2023-07-16T04:14:57.589Z,1004.45
2023-07-16T04:15:57.552Z,1004.38
2023-07-16T04:16:57.578Z,1004.31
2023-07-16T04:17:57.561Z,1004.37
2023-07-16T04:18:57.533Z,1004.41
2023-07-16T04:19:57.542Z,1004.46
2023-07-16T04:20:57.507Z,1004.51
2023-07-16T04:21:57.489Z,1004.57
2023-07-16T04:22:57.540Z,1004.63
2023-07-16T04:23:58.294Z,1004.66
2023-07-16T04:24:57.522Z,1004.70
2023-07-16T04:25:57.466Z,1004.71
2023-07-16T04:26:57.451Z,1004.72
2023-07-16T04:27:57.436Z,1004.78
2023-07-16T04:28:57.440Z,1004.77
2023-07-16T04:29:57.413Z,1004.80
2023-07-16T04:30:57.415Z,1004.86
2023-07-16T04:31:57.377Z,1004.85
2023-07-16T04:32:57.422Z,1004.87
2023-07-16T04:33:57.351Z,1004.80
2023-07-16T04:34:57.397Z,1004.83
2023-07-16T04:35:57.370Z,1004.78
2023-07-16T04:36:57.367Z,1004.80
2023-07-16T04:37:57.313Z,1004.89
2023-07-16T04:38:57.309Z,1004.85
2023-07-16T04:39:57.295Z,1004.80
2023-07-16T04:40:57.294Z,1004.88
2023-07-16T04:41:57.300Z,1004.90
2023-07-16T04:42:57.264Z,1004.78
2023-07-16T04:43:57.256Z,1004.81
2023-07-16T04:44:57.248Z,1004.84
2023-07-16T04:45:57.291Z,1004.89
2023-07-16T04:46:57.481Z,1004.96
2023-07-16T04:47:57.237Z,1005.01
2023-07-16T04:48:57.201Z,1005.07
2023-07-16T04:49:59.945Z,1005.10
2023-07-16T04:50:57.165Z,1005.09
2023-07-16T04:51:57.242Z,1005.12
2023-07-16T04:52:57.184Z,1005.16
2023-07-16T04:54:03.677Z,1005.19
2023-07-16T04:54:57.129Z,1005.22
2023-07-16T04:55:57.119Z,1005.17
2023-07-16T04:56:57.099Z,1005.17
2023-07-16T04:57:57.143Z,1005.13
2023-07-16T04:58:57.078Z,1005.14
2023-07-16T04:59:57.077Z,1005.12
2023-07-16T05:00:57.082Z,1005.11
2023-07-16T05:01:57.066Z,1005.20
2023-07-16T05:02:57.051Z,1005.28
2023-07-16T05:03:57.074Z,1005.36
2023-07-16T05:04:57.014Z,1005.47
2023-07-16T05:05:57.008Z,1005.53
2023-07-16T05:06:56.997Z,1005.56
2023-07-16T05:07:56.992Z,1005.59
2023-07-16T05:08:57.044Z,1005.54
2023-07-16T05:09:56.970Z,1005.54
2023-07-16T05:10:56.949Z,1005.54
2023-07-16T05:11:56.937Z,1005.57
2023-07-16T05:12:56.923Z,1005.58
2023-07-16T05:13:56.921Z,1005.58
2023-07-16T05:14:56.941Z,1005.65
2023-07-16T05:15:56.932Z,1005.65
2023-07-16T05:16:56.986Z,1005.65
2023-07-16T05:17:57.012Z,1005.61
2023-07-16T05:18:56.866Z,1005.61
2023-07-16T05:19:56.857Z,1005.54
2023-07-16T05:20:56.852Z,1005.53
2023-07-16T05:21:56.845Z,1005.48
2023-07-16T05:22:56.871Z,1005.45
2023-07-16T05:23:56.802Z,1005.47
2023-07-16T05:24:56.796Z,1005.47
2023-07-16T05:25:56.835Z,1005.50
2023-07-16T05:26:56.765Z,1005.51
2023-07-16T05:27:56.764Z,1005.49
2023-07-16T05:28:56.750Z,1005.45
2023-07-16T05:29:56.758Z,1005.49
2023-07-16T05:30:56.754Z,1005.43
2023-07-16T05:31:56.827Z,1005.37
2023-07-16T05:32:56.764Z,1005.32
2023-07-16T05:33:56.694Z,1005.44
2023-07-16T05:34:56.738Z,1005.47
2023-07-16T05:35:56.703Z,1005.53
2023-07-16T05:36:56.671Z,1005.59
2023-07-16T05:37:56.663Z,1005.60
2023-07-16T05:38:56.656Z,1005.61
2023-07-16T05:39:56.640Z,1005.57
2023-07-16T05:40:56.633Z,1005.59
2023-07-16T05:41:56.624Z,1005.59
2023-07-16T05:42:56.602Z,1005.60
2023-07-16T05:43:56.593Z,1005.64
2023-07-16T05:44:56.612Z,1005.58
2023-07-16T05:45:56.631Z,1005.60
2023-07-16T05:46:56.557Z,1005.57
2023-07-16T05:47:56.614Z,1005.64
2023-07-16T05:48:56.624Z,1005.63
2023-07-16T05:49:56.540Z,1005.71
2023-07-16T05:50:56.540Z,1005.69
2023-07-16T05:51:56.511Z,1005.68
2023-07-16T05:52:56.491Z,1005.70
2023-07-16T05:53:56.493Z,1005.68
2023-07-16T05:54:56.464Z,1005.70
2023-07-16T05:55:56.460Z,1005.66
2023-07-16T05:56:56.458Z,1005.68
2023-07-16T05:57:56.459Z,1005.71
2023-07-16T05:58:56.433Z,1005.68
2023-07-16T05:59:56.780Z,1005.71
2023-07-16T06:00:56.405Z,1005.71
2023-07-16T06:01:56.519Z,1005.70
2023-07-16T06:02:56.419Z,1005.66
2023-07-16T06:03:56.407Z,1005.68
2023-07-16T06:04:56.364Z,1005.70
2023-07-16T06:05:56.352Z,1005.70
2023-07-16T06:06:56.359Z,1005.74
2023-07-16T06:07:56.380Z,1005.76
2023-07-16T06:08:56.407Z,1005.73
2023-07-16T06:09:56.318Z,1005.81
2023-07-16T06:10:56.318Z,1005.78
2023-07-16T06:11:56.304Z,1005.75
2023-07-16T06:12:56.308Z,1005.68
2023-07-16T06:13:56.377Z,1005.73
2023-07-16T06:14:56.290Z,1005.77
2023-07-16T06:15:56.291Z,1005.68
2023-07-16T06:16:56.296Z,1005.70
2023-07-16T06:17:56.261Z,1005.72
2023-07-16T06:18:56.214Z,1005.76
2023-07-16T06:19:56.220Z,1005.71
2023-07-16T06:20:56.211Z,1005.76
2023-07-16T06:21:56.190Z,1005.74
2023-07-16T06:22:56.223Z,1005.79
2023-07-16T06:23:56.177Z,1005.76
2023-07-16T06:24:56.178Z,1005.74
2023-07-16T06:25:56.197Z,1005.75
2023-07-16T06:26:56.134Z,1005.69
2023-07-16T06:27:56.157Z,1005.72
2023-07-16T06:28:56.120Z,1005.71
2023-07-16T06:29:56.184Z,1005.72
2023-07-16T06:30:56.337Z,1005.72
2023-07-16T06:31:56.244Z,1005.77
2023-07-16T06:32:56.239Z,1005.77
2023-07-16T06:33:56.086Z,1005.76
2023-07-16T06:34:56.114Z,1005.75
2023-07-16T06:35:56.041Z,1005.84
2023-07-16T06:36:56.068Z,1005.80
2023-07-16T06:37:56.014Z,1005.87
2023-07-16T06:38:55.996Z,1005.83
2023-07-16T06:39:56.178Z,1005.87
2023-07-16T06:40:55.998Z,1005.81
2023-07-16T06:41:55.965Z,1005.87
2023-07-16T06:42:55.968Z,1005.87
2023-07-16T06:43:55.940Z,1005.89
2023-07-16T06:44:55.953Z,1005.93
2023-07-16T06:45:56.130Z,1005.91
2023-07-16T06:46:55.917Z,1005.96
2023-07-16T06:47:55.944Z,1005.99
2023-07-16T06:48:55.932Z,1005.95
2023-07-16T06:49:55.887Z,1006.02
2023-07-16T06:50:55.888Z,1006.01
2023-07-16T06:51:55.893Z,1006.04
2023-07-16T06:52:55.874Z,1006.02
2023-07-16T06:53:55.850Z,1006.00
2023-07-16T06:54:55.833Z,1005.99
2023-07-16T06:55:55.824Z,1006.02
2023-07-16T06:56:55.840Z,1006.06
2023-07-16T06:57:55.812Z,1006.02
2023-07-16T06:58:55.787Z,1005.96
2023-07-16T06:59:55.778Z,1006.01
2023-07-16T07:00:55.823Z,1006.03
2023-07-16T07:01:55.846Z,1006.05
2023-07-16T07:02:55.818Z,1006.03
2023-07-16T07:03:55.814Z,1006.05
2023-07-16T07:04:55.738Z,1006.04
2023-07-16T07:05:55.715Z,1006.06
2023-07-16T07:06:55.753Z,1006.14
2023-07-16T07:07:55.710Z,1006.09
2023-07-16T07:08:55.692Z,1006.10
2023-07-16T07:09:55.680Z,1006.15
2023-07-16T07:10:55.676Z,1006.19
2023-07-16T07:11:55.652Z,1006.11
2023-07-16T07:12:55.682Z,1006.15
2023-07-16T07:13:55.658Z,1006.08
2023-07-16T07:14:55.623Z,1006.18
2023-07-16T07:15:55.639Z,1006.15
2023-07-16T07:16:55.601Z,1006.19
2023-07-16T07:17:55.654Z,1006.21
2023-07-16T07:18:55.613Z,1006.22
2023-07-16T07:19:55.596Z,1006.17
2023-07-16T07:20:55.568Z,1006.25
2023-07-16T07:21:55.605Z,1006.25
2023-07-16T07:22:55.588Z,1006.24
2023-07-16T07:23:55.554Z,1006.26
2023-07-16T07:24:55.522Z,1006.27
2023-07-16T07:25:55.519Z,1006.28
2023-07-16T07:26:55.504Z,1006.31
2023-07-16T07:27:55.503Z,1006.31
2023-07-16T07:28:55.481Z,1006.32
2023-07-16T07:29:55.464Z,1006.37
2023-07-16T07:30:55.489Z,1006.32
2023-07-16T07:31:55.444Z,1006.36
2023-07-16T07:32:55.482Z,1006.34
2023-07-16T07:33:55.448Z,1006.36
2023-07-16T07:34:55.471Z,1006.33
2023-07-16T07:35:55.400Z,1006.31
2023-07-16T07:36:55.381Z,1006.31
2023-07-16T07:37:55.367Z,1006.37
2023-07-16T07:38:55.372Z,1006.40
2023-07-16T07:39:55.376Z,1006.45
2023-07-16T07:40:55.357Z,1006.45
2023-07-16T07:41:55.324Z,1006.48
2023-07-16T07:42:55.337Z,1006.55
2023-07-16T07:43:55.314Z,1006.48
2023-07-16T07:44:55.301Z,1006.47
2023-07-16T07:45:55.349Z,1006.45
2023-07-16T07:46:55.312Z,1006.51
2023-07-16T07:47:55.328Z,1006.51
2023-07-16T07:48:55.264Z,1006.53
2023-07-16T07:49:55.241Z,1006.53
2023-07-16T07:50:55.243Z,1006.51
2023-07-16T07:51:55.229Z,1006.53
2023-07-16T07:52:55.224Z,1006.54
2023-07-16T07:53:55.219Z,1006.53
2023-07-16T07:54:55.207Z,1006.54
2023-07-16T07:55:55.241Z,1006.53
2023-07-16T07:56:55.229Z,1006.52
2023-07-16T07:57:55.209Z,1006.51
2023-07-16T07:58:55.241Z,1006.54
2023-07-16T07:59:55.156Z,1006.57
2023-07-16T08:00:55.156Z,1006.55
2023-07-16T08:01:55.121Z,1006.59
2023-07-16T08:02:55.192Z,1006.58
2023-07-16T08:03:55.260Z,1006.55
2023-07-16T08:04:55.265Z,1006.59
2023-07-16T08:05:55.065Z,1006.58
2023-07-16T08:06:55.078Z,1006.58
2023-07-16T08:07:55.056Z,1006.54
2023-07-16T08:08:55.094Z,1006.61
2023-07-16T08:09:55.038Z,1006.64
2023-07-16T08:10:55.029Z,1006.73
2023-07-16T08:11:55.012Z,1006.74
2023-07-16T08:12:55.018Z,1006.72
2023-07-16T08:13:54.999Z,1006.71
2023-07-16T08:14:54.993Z,1006.74
2023-07-16T08:15:54.998Z,1006.68
2023-07-16T08:16:55.040Z,1006.70
2023-07-16T08:17:55.017Z,1006.70
2023-07-16T08:18:54.943Z,1006.69
2023-07-16T08:19:54.994Z,1006.70
2023-07-16T08:20:54.980Z,1006.70
2023-07-16T08:21:54.905Z,1006.69
2023-07-16T08:22:55.031Z,1006.70
2023-07-16T08:23:54.953Z,1006.74
2023-07-16T08:24:54.891Z,1006.75
2023-07-16T08:25:54.869Z,1006.77
2023-07-16T08:26:54.851Z,1006.77
2023-07-16T08:27:54.951Z,1006.77
2023-07-16T08:28:54.852Z,1006.75
2023-07-16T08:29:54.821Z,1006.77
2023-07-16T08:30:54.844Z,1006.81
2023-07-16T08:31:54.857Z,1006.81
2023-07-16T08:32:54.856Z,1006.80
2023-07-16T08:33:54.789Z,1006.79
2023-07-16T08:34:54.769Z,1006.81
2023-07-16T08:35:54.766Z,1006.83
2023-07-16T08:36:54.753Z,1006.82
2023-07-16T08:37:54.731Z,1006.85
2023-07-16T08:38:54.774Z,1006.86
2023-07-16T08:39:54.742Z,1006.91
2023-07-16T08:40:54.720Z,1006.86
2023-07-16T08:41:54.779Z,1006.93
2023-07-16T08:42:54.697Z,1006.95
2023-07-16T08:43:54.677Z,1006.98
2023-07-16T08:44:54.748Z,1006.94
2023-07-16T08:45:54.703Z,1006.89
2023-07-16T08:46:54.710Z,1006.94
2023-07-16T08:47:54.744Z,1006.95
2023-07-16T08:48:54.632Z,1006.96
2023-07-16T08:49:54.642Z,1006.93
2023-07-16T08:50:54.715Z,1006.88
2023-07-16T08:51:54.637Z,1006.88
2023-07-16T08:52:54.585Z,1006.88
2023-07-16T08:53:54.568Z,1006.88
2023-07-16T08:54:54.566Z,1006.92
2023-07-16T08:55:57.788Z,1006.93
2023-07-16T08:56:54.733Z,1006.95
2023-07-16T08:57:54.527Z,1006.99
2023-07-16T08:58:54.509Z,1006.95
2023-07-16T08:59:54.512Z,1006.98
2023-07-16T09:00:54.500Z,1006.99
2023-07-16T09:01:54.481Z,1007.00
2023-07-16T09:02:54.509Z,1007.00
2023-07-16T09:03:54.480Z,1007.00
2023-07-16T09:04:54.491Z,1007.01
2023-07-16T09:05:54.460Z,1006.95
2023-07-16T09:06:54.442Z,1007.05
2023-07-16T09:07:54.422Z,1007.04
2023-07-16T09:08:54.432Z,1007.08
2023-07-16T09:09:54.392Z,1007.05
2023-07-16T09:10:54.395Z,1007.10
2023-07-16T09:11:54.393Z,1007.13
2023-07-16T09:12:54.362Z,1007.14
2023-07-16T09:13:54.373Z,1007.13
2023-07-16T09:14:54.348Z,1007.14
2023-07-16T09:15:54.340Z,1007.14
2023-07-16T09:16:54.424Z,1007.08
2023-07-16T09:17:54.379Z,1007.08
2023-07-16T09:18:54.304Z,1007.08
2023-07-16T09:19:54.310Z,1007.06
2023-07-16T09:20:54.432Z,1007.10
2023-07-16T09:21:54.263Z,1007.12
2023-07-16T09:22:54.320Z,1007.11
2023-07-16T09:23:54.247Z,1007.16
2023-07-16T09:24:54.248Z,1007.20
2023-07-16T09:25:54.242Z,1007.11
2023-07-16T09:26:54.315Z,1007.12
2023-07-16T09:27:54.204Z,1007.11
2023-07-16T09:28:54.201Z,1007.16
2023-07-16T09:29:54.185Z,1007.19
2023-07-16T09:30:54.314Z,1007.11
2023-07-16T09:31:54.268Z,1007.14
2023-07-16T09:32:54.243Z,1007.13
2023-07-16T09:33:54.140Z,1007.16
2023-07-16T09:34:54.136Z,1007.18
2023-07-16T09:35:54.164Z,1007.12
2023-07-16T09:36:54.133Z,1007.19
2023-07-16T09:37:54.096Z,1007.18
2023-07-16T09:38:54.129Z,1007.18
2023-07-16T09:39:54.071Z,1007.17
2023-07-16T09:40:54.108Z,1007.14
2023-07-16T09:41:54.058Z,1007.17
2023-07-16T09:42:54.060Z,1007.15
2023-07-16T09:43:54.071Z,1007.15
2023-07-16T09:44:54.056Z,1007.20
2023-07-16T09:45:54.065Z,1007.10
2023-07-16T09:46:54.097Z,1007.15
2023-07-16T09:47:54.037Z,1007.19
2023-07-16T09:48:53.992Z,1007.19
2023-07-16T09:49:54.008Z,1007.20
2023-07-16T09:50:54.148Z,1007.19
2023-07-16T09:51:53.966Z,1007.20
2023-07-16T09:52:53.951Z,1007.25
2023-07-16T09:53:53.934Z,1007.28
2023-07-16T09:54:53.933Z,1007.25
2023-07-16T09:55:53.916Z,1007.26
2023-07-16T09:56:53.973Z,1007.27
2023-07-16T09:57:53.916Z,1007.30
2023-07-16T09:58:54.808Z,1007.33
2023-07-16T09:59:53.923Z,1007.32
2023-07-16T10:00:53.962Z,1007.30
2023-07-16T10:01:53.883Z,1007.33
2023-07-16T10:02:53.925Z,1007.35
2023-07-16T10:03:53.884Z,1007.41
2023-07-16T10:04:53.856Z,1007.35
2023-07-16T10:05:53.860Z,1007.41
2023-07-16T10:06:53.805Z,1007.37
2023-07-16T10:07:53.789Z,1007.42
2023-07-16T10:08:53.778Z,1007.34
2023-07-16T10:09:53.840Z,1007.36
2023-07-16T10:10:53.770Z,1007.31
2023-07-16T10:11:53.740Z,1007.34
2023-07-16T10:12:53.786Z,1007.30
2023-07-16T10:13:53.724Z,1007.29
2023-07-16T10:14:53.724Z,1007.27
2023-07-16T10:15:53.822Z,1007.28
2023-07-16T10:16:53.781Z,1007.27
2023-07-16T10:17:53.726Z,1007.25
2023-07-16T10:18:53.679Z,1007.22
2023-07-16T10:19:53.692Z,1007.20
2023-07-16T10:20:53.710Z,1007.27
2023-07-16T10:21:53.633Z,1007.30
2023-07-16T10:22:53.693Z,1007.29
2023-07-16T10:23:53.618Z,1007.33
2023-07-16T10:24:53.641Z,1007.31
2023-07-16T10:25:53.677Z,1007.35
2023-07-16T10:26:53.592Z,1007.33
2023-07-16T10:27:53.575Z,1007.33
2023-07-16T10:28:53.581Z,1007.32
2023-07-16T10:29:53.556Z,1007.29
2023-07-16T10:30:53.576Z,1007.32
2023-07-16T10:31:53.988Z,1007.35
2023-07-16T10:32:53.713Z,1007.37
2023-07-16T10:33:53.508Z,1007.39
2023-07-16T10:34:53.505Z,1007.41
2023-07-16T10:35:53.507Z,1007.41
2023-07-16T10:36:53.484Z,1007.39
2023-07-16T10:37:53.505Z,1007.36
2023-07-16T10:38:53.455Z,1007.39
2023-07-16T10:39:53.454Z,1007.44
2023-07-16T10:40:53.608Z,1007.43
2023-07-16T10:41:53.451Z,1007.38
2023-07-16T10:42:53.430Z,1007.38
2023-07-16T10:43:55.680Z,1007.40
2023-07-16T10:44:53.407Z,1007.43
2023-07-16T10:45:53.420Z,1007.43
2023-07-16T10:46:53.404Z,1007.44
2023-07-16T10:47:53.704Z,1007.48
2023-07-16T10:48:53.352Z,1007.43
2023-07-16T10:49:53.374Z,1007.47
2023-07-16T10:50:53.338Z,1007.48
2023-07-16T10:51:53.329Z,1007.48
2023-07-16T10:52:53.318Z,1007.45
2023-07-16T10:53:53.337Z,1007.39
2023-07-16T10:54:53.285Z,1007.44
2023-07-16T10:55:53.278Z,1007.41
2023-07-16T10:56:53.271Z,1007.42
2023-07-16T10:57:53.260Z,1007.40
2023-07-16T10:58:53.248Z,1007.43
2023-07-16T10:59:53.241Z,1007.45
2023-07-16T11:00:53.287Z,1007.47
2023-07-16T11:01:53.275Z,1007.44
2023-07-16T11:02:53.330Z,1007.50
2023-07-16T11:03:53.316Z,1007.49
2023-07-16T11:04:53.182Z,1007.45
2023-07-16T11:05:53.198Z,1007.42
2023-07-16T11:06:53.154Z,1007.41
2023-07-16T11:07:55.108Z,1007.45
2023-07-16T11:08:53.145Z,1007.47
2023-07-16T11:09:53.146Z,1007.45
2023-07-16T11:10:53.130Z,1007.49
2023-07-16T11:11:53.141Z,1007.47
2023-07-16T11:12:53.091Z,1007.48
2023-07-16T11:13:53.152Z,1007.49
2023-07-16T11:14:53.073Z,1007.52
2023-07-16T11:15:53.140Z,1007.51
2023-07-16T11:16:53.055Z,1007.39
2023-07-16T11:17:53.160Z,1007.48
2023-07-16T11:18:53.036Z,1007.42
2023-07-16T11:19:53.045Z,1007.48
2023-07-16T11:20:53.001Z,1007.50
2023-07-16T11:21:52.996Z,1007.49
2023-07-16T11:22:53.075Z,1007.51
2023-07-16T11:23:52.981Z,1007.49
2023-07-16T11:24:53.042Z,1007.46
2023-07-16T11:25:52.966Z,1007.44
2023-07-16T11:26:52.957Z,1007.47
2023-07-16T11:27:52.935Z,1007.47
2023-07-16T11:28:52.955Z,1007.52
2023-07-16T11:29:53.565Z,1007.54
2023-07-16T11:30:52.948Z,1007.49
2023-07-16T11:31:53.036Z,1007.49
2023-07-16T11:32:53.123Z,1007.50
2023-07-16T11:33:52.869Z,1007.44
2023-07-16T11:34:52.857Z,1007.41
2023-07-16T11:35:52.881Z,1007.40
2023-07-16T11:36:52.835Z,1007.44
2023-07-16T11:37:52.830Z,1007.42
2023-07-16T11:38:52.816Z,1007.39
2023-07-16T11:39:52.809Z,1007.32
2023-07-16T11:40:52.813Z,1007.32
2023-07-16T11:41:52.808Z,1007.30
2023-07-16T11:42:52.774Z,1007.35
2023-07-16T11:43:52.780Z,1007.34
2023-07-16T11:44:52.751Z,1007.34
2023-07-16T11:45:52.747Z,1007.36
2023-07-16T11:46:52.840Z,1007.34
2023-07-16T11:47:52.780Z,1007.34
2023-07-16T11:48:52.708Z,1007.32
2023-07-16T11:49:52.699Z,1007.28
2023-07-16T11:50:52.694Z,1007.23
2023-07-16T11:51:52.684Z,1007.22
2023-07-16T11:52:52.855Z,1007.20
2023-07-16T11:53:52.972Z,1007.28
2023-07-16T11:54:52.666Z,1007.33
2023-07-16T11:55:52.639Z,1007.34
2023-07-16T11:56:52.656Z,1007.39
2023-07-16T11:57:52.650Z,1007.21
2023-07-16T11:58:52.630Z,1007.19
2023-07-16T11:59:52.641Z,1007.25
2023-07-16T12:00:52.690Z,1007.26
2023-07-16T12:01:52.572Z,1007.31
2023-07-16T12:02:53.160Z,1007.31
2023-07-16T12:03:52.613Z,1007.31
2023-07-16T12:04:52.541Z,1007.32